KORL/ORL METAR and TAF weather

Enter ICAO airport designator
Station Type Date Time Source
KORL METAR 2021/08/05 04:16 UTC NOAA

KORL 050416Z AUTO 19006KT 10SM SCT024 OVC060 25/23 A3006 RMK AO2 T02500228


Station Type Date Time Source
KORL Decoded METAR 2021/08/05 04:16 UTC NOAA

ORLANDO EXECUTIVE AIRPORT, FL, United States (KORL) 28-33N 081-20W 37M
Aug 05, 2021 - 12:16 AM EDT / 2021.08.05 0416 UTC
Wind: from the S (190 degrees) at 7 MPH (6 KT):0
Visibility: 10 mile(s):0
Sky conditions: overcast
Temperature: 77.0 F (25.0 C)
Dew Point: 73.0 F (22.8 C)
Relative Humidity: 87%
Pressure (altimeter): 30.06 in. Hg (1017 hPa)
ob: KORL 050416Z AUTO 19006KT 10SM SCT024 OVC060 25/23 A3006 RMK AO2 T02500228
cycle: 4

Station Type Date Time Source
KORL TAF UTC NOAA

Error!

Example: see airport list